Terminal Aerodrome Forecast
Issued by NWS

Home | Current Version | Previous Version | Text Only | Print | Product List | Glossary On
Versions: 1 2 3 4 5 6 7 8 9 10 11 12 13 14 15 16 17 18 19 20 21
000
FTUS44 KLZK 161724
TAFPBF
TAF
KPBF 161724Z 1618/1718 21008KT P6SM SCT040 BKN250
     FM170600 21005KT P6SM OVC250
      TEMPO 1710/1714 4SM BR OVC015
     FM171400 25011KT P6SM OVC050
      TEMPO 1716/1718 4SM -SHRA OVC035=

USA.gov is the U.S. government's official web portal to all federal, state and local government web resources and services.